Arches, Utah
Current Conditions -  °F | °C
As of 6:53 AM on Wednesday 26 Nov 2014 (Local Time) from KCNY Reporting Station
Clear Clear  
Wind Chill: 21°   Ceiling: Unl
Heat Index: 21°   Visibility: 10mi
Dew Point:   Wind: 0mph
Humidity: 55%   Direction: NA
Pressure: 30.36"   Gusts: NA
Location:  38.6903°N, 109.256°W
Report Text: KCNY 261353Z AUTO 00000KT 10SM CLR M06/M14 A3036 RMK AO2 SLP310 T10611139
Loading
Personal Weather Stations






























Interactive Weather Map New forecast layout! Learn more

10-Day Weather Forecast

Advertisements
Track Severe Weather on mobile